Tiempo atmosférico en la estación meteorológica de Bardenas Reales, Base Aérea, Navarra (295 m.)



Fecha
DESCASC
Temp. máxima en grados centígrados (hora)
DESCASC
Temp. mínima en grados centígrados (hora)
DESCASC
Temp. media en grados centígrados
DESCASC
Racha de viento máxima en m/sg (hora)
DESCASC
Velocidad máxima media en intervalos de 10 minutos(hora)
DESCASC
Precipitaciones diarias en mm
DESCASC
Precipitaciones de 00:00 a 06:00 en mm
DESCASC
Precipitaciones de 06:00 a 12:00 en mm
DESCASC
Precipitaciones de 12:00 a 18:00 en mm
DESCASC
Precipitaciones de 18:00 a 24:00 en mm
DESCASC
20-09-2020 26.4 (15:20) 14 (08:10) 20.2 -- (--) -- (--) 0.4 0 0 0.2 0.2
19-09-2020 24.6 (15:30) 16.6 (23:50) 20.6 12.5 (16:50) 8.89 (16:50) 0.4 0 0.2 0.2 0
18-09-2020 27.2 (14:50) 18.9 (23:00) 23.1 15.83 (15:40) 11.11 (01:10) 0.6 0 0.2 0.4 0
17-09-2020 31.6 (16:20) 21.6 (00:00) 26.6 13.89 (18:50) 10 (19:30) 0 0 0 0 0
16-09-2020 34.4 (16:10) 16.6 (00:00) 25.5 6.94 (00:20) 5.83 (00:30) 0 0 0 0 0
15-09-2020 33.3 (17:20) 19.5 (00:00) 26.4 14.44 (03:50) 11.11 (03:40) 0.2 0.2 0 0 0
14-09-2020 33.1 (16:10) 18.4 (00:00) 25.7 11.67 (16:20) 8.06 (15:20) 0 0 0 0 0
13-09-2020 34.2 (17:40) 13 (00:00) 23.6 11.39 (15:10) 7.78 (18:00) 0 0 0 0 0
12-09-2020 32.2 (18:30) 13.1 (00:00) 22.7 5.83 (01:10) 4.17 (01:10) 0 0 0 0 0
11-09-2020 31.6 (17:30) 15.1 (00:00) 23.4 9.17 (00:20) 6.94 (00:20) 0 0 0 0 0
10-09-2020 31.1 (16:10) 15.5 (00:00) 23.3 14.72 (19:10) 10.83 (17:10) 0 0 0 0 0
09-09-2020 31.4 (17:20) 11.8 (00:00) 21.6 13.33 (19:00) 10 (19:00) 0 0 0 0 0
08-09-2020 28.9 (17:20) 11 (00:00) 19.9 11.94 (00:10) 8.61 (00:10) 0 0 0 0 0
07-09-2020 24 (16:30) 14.4 (07:40) 19.2 17.5 (10:00) 12.78 (10:10) 0 0 0 0 0
06-09-2020 24.3 (16:30) 16.4 (00:00) 20.3 16.94 (20:40) 12.22 (20:20) 0 0 0 0 0
05-09-2020 29.7 (15:00) 18.1 (00:00) 23.9 15 (18:10) 11.39 (17:50) 0 0 0 0 0
04-09-2020 33.2 (17:40) 15.1 (00:00) 24.2 11.39 (16:40) 7.5 (14:30) 0 0 0 0 0
03-09-2020 31.9 (18:40) 9.9 (00:00) 20.9 7.78 (02:00) 5.28 (00:50) 0 0 0 0 0
02-09-2020 27.1 (16:50) 15.8 (00:00) 21.5 13.06 (10:40) 9.17 (10:50) 0 0 0 0 0
01-09-2020 28.3 (16:40) 13.6 (00:00) 20.9 11.67 (23:50) 8.61 (23:50) 0 0 0 0 0
31-08-2020 26.6 (18:30) 11.9 (00:00) 19.3 10.56 (03:00) 7.78 (00:30) 0 0 0 0 0
30-08-2020 21.3 (16:20) 12.1 (00:00) 16.7 17.78 (14:40) 12.22 (16:40) 0 0 0 0 0
29-08-2020 24.3 (16:40) 13.4 (00:00) 18.8 15.83 (16:40) 11.94 (20:20) 0 0 0 0 0
28-08-2020 26.4 (14:10) 17.6 (00:00) 22 15.83 (16:10) 12.22 (16:10) 0 0 0 0 0
27-08-2020 36.6 (17:20) 18.7 (00:00) 27.6 10.56 (23:59) 7.78 (23:59) 0 0 0 0 0
26-08-2020 35.9 (18:10) 18.7 (00:00) 27.3 9.44 (19:30) 7.22 (19:40) 0 0 0 0 0
25-08-2020 37.1 (18:20) 13.8 (00:00) 25.4 9.17 (23:30) 6.67 (23:30) 0 0 0 0 0
24-08-2020 30.8 (18:30) 16.4 (00:00) 23.6 12.78 (03:00) 9.17 (00:30) 0 0 0 0 0
23-08-2020 28.3 (17:50) 16.9 (00:00) 22.6 14.72 (12:30) 10.28 (12:40) 0 0 0 0 0
22-08-2020 30.4 (17:20) 17 (00:00) 23.7 12.5 (18:00) 8.06 (16:40) 0 0 0 0 0

Gráficas

Temp. máximas Temp. mínimas Temp. medias Precipitaciones Rachas de viento máximas Velocidades máximas media en intervalos de 10 minutos

Datos horarios

Fecha y hora oficial Temperatura (ºC) Velocidad del viento (km/h) Dirección del viento Racha (km/h) Dirección de racha Precipitación (mm) Presión (hPa) Tendencia (hPa) Humedad (%)
2020-09-20 23:00:00 18.6 5 Noroeste 15 Sudoeste 0.2 982 1.2 83
2020-09-20 22:00:00 19 12 Sudoeste 18 Sudoeste 0 981.9 1.1 84
2020-09-20 21:00:00 19.5 11 Sudoeste 15 Sudoeste 0 981.4 1.1 83
2020-09-20 20:00:00 20.2 9 Sudoeste 16 Sudoeste 0 980.8 0.4 76
2020-09-20 19:00:00 20.8 13 Sudoeste 21 Sudoeste 0 980.8 0.3 71
2020-09-20 18:00:00 21.1 9 Sudoeste 26 Sudoeste 0.2 980.3 -0.5 74
2020-09-20 17:00:00 21 15 Sur 33 Sudoeste 0 980.4 -0.9 73
2020-09-20 16:00:00 24.3 15 Sudoeste 23 Sudoeste 0 980.5 -1.4 49
2020-09-20 15:00:00 25.2 6 Oeste 17 Sudoeste 0 980.8 -1.5 41
2020-09-20 14:00:00 24.5 4 Este 12 Oeste 0 981.3 -0.9 48
2020-09-20 13:00:00 22.7 4 Norte 10 Noroeste 0 981.9 -- 54
2020-09-20 12:00:00 21.9 5 Sudeste 12 Norte 0 982.3 -- 60
2020-09-20 11:00:00 20.6 5 Noroeste -- -- 0 982.2 -- 65
2020-09-20 10:00:00 18.6 0 Calma 4 Sudeste 0 981.9 -- 75
2020-09-20 09:00:00 15.3 0 Calma 6 Sudeste 0 981.8 -- 85
2020-09-20 08:00:00 14.2 5 Sur 6 Sur 0 981.4 -- 86
2020-09-20 07:00:00 15.3 3 Sur 6 Este 0 981.3 -- 86
2020-09-20 06:00:00 15.1 3 Sudeste 7 Sur 0 981.6 -- 87
2020-09-20 05:00:00 15.3 4 Nordeste 5 Nordeste 0 981.3 -- 85
2020-09-20 04:00:00 16 2 Nordeste 4 Este 0 981.3 -- 84
2020-09-20 03:00:00 16.6 2 Sudoeste 5 Sudoeste 0 981.3 -- 82
2020-09-20 02:00:00 17 4 Oeste -- -- 0 981.1 -- 81
2020-09-20 01:00:00 16.7 -- -- -- -- 0 981.3 -- 81
2020-09-20 00:00:00 16.9 2 Noroeste 8 Sur 0 981.2 -- 82
2020-09-19 23:00:00 17.3 5 Norte 11 Noroeste 0 980.9 -- 81
2020-09-19 22:00:00 17.4 12 Noroeste 17 Noroeste 0 980.4 -- 82
2020-09-19 21:00:00 19.1 9 Norte 11 Norte 0 979.4 -- 74
2020-09-19 20:00:00 21.4 0 Calma 5 Norte 0 979 -- 65
2020-09-19 19:00:00 21 3 Sudoeste 22 Sudoeste 0 978.5 -- 68
2020-09-19 18:00:00 21.3 21 Sudoeste 44 Sur 0 978.1 -- 60
2020-09-19 17:00:00 20.8 27 Sur 45 Sur 0.2 977.8 -- 65
2020-09-19 16:00:00 23.7 21 Sudoeste 38 Sur 0 977.8 -- 46
2020-09-19 15:00:00 24.4 22 Sudeste 32 Sur 0 977.8 -- 42
2020-09-19 14:00:00 23.6 22 Sur 33 Sur 0 978.5 -- 48
2020-09-19 13:00:00 21.3 19 Sudeste 32 Este 0 979 -- 64
2020-09-19 12:00:00 19.6 22 Este 29 Este 0.2 979.5 -- 83
2020-09-19 11:00:00 18.7 23 Este 33 Este 0 979.4 -- 81
2020-09-19 10:00:00 18 18 Este 39 Este 0 979.2 -- 80
2020-09-19 09:00:00 19.4 21 Sudeste 38 Sudeste 0 978.4 -- 66
2020-09-19 08:00:00 19.7 19 Sudeste 35 Sudeste 0 977.9 -- 56
2020-09-19 07:00:00 19.4 18 Sudeste 43 Sudeste 0 977.9 -- 61
2020-09-19 06:00:00 20.5 30 Sudeste 41 Sur 0 977.6 -- 56
2020-09-19 05:00:00 18.7 28 Este 38 Este 0 977.7 -- 70
2020-09-19 04:00:00 18.3 20 Este 35 Este 0 978.2 -- 76
2020-09-19 03:00:00 18.7 24 Este 33 Este 0 978.5 -- 81
2020-09-19 02:00:00 18.6 19 Este 31 Este 0 978.5 -- 86
2020-09-19 01:00:00 18.8 20 Este 31 Este 0 978.6 -- 87
2020-09-19 00:00:00 18.9 18 Este 25 Este 0 978.9 -- 88
2020-09-18 23:00:00 18.9 19 Este 29 Este 0 978.7 -- 87
2020-09-18 22:00:00 19.3 17 Este 31 Este 0 978.7 -- 84
2020-09-18 21:00:00 19.4 15 Sudeste 31 Este 0 978.5 -- 82
2020-09-18 20:00:00 20.3 22 Este 37 Este 0 977.7 -- 78
2020-09-18 19:00:00 21.2 20 Este 33 Este 0 977.7 -- 74
2020-09-18 18:00:00 21.2 27 Este 49 Este 0 977.5 -- 73
2020-09-18 17:00:00 21 28 Este 50 Este 0.4 977.3 -- 80
2020-09-18 16:00:00 26 38 Sudeste 57 Este 0 977.4 -- 48
2020-09-18 15:00:00 26.8 39 Este 51 Este 0 978 -- 53
2020-09-18 14:00:00 26.4 34 Sudeste 49 Sudeste 0 978.3 -- 45
2020-09-18 13:00:00 24.3 32 Este 48 Este 0 979 -- 61
2020-09-18 12:00:00 22.6 28 Este 46 Este 0 979.4 -- 63
2020-09-18 11:00:00 20.7 15 Este 43 Este 0.2 979.5 -- 72
2020-09-18 10:00:00 20 35 Este 50 Este 0 978.4 -- 72
2020-09-18 09:00:00 21.3 26 Este 41 Este 0 978.5 -- 62
2020-09-18 08:00:00 21.4 26 Este 38 Este 0 977.9 -- 61
2020-09-18 07:00:00 21.7 23 Este 41 Este 0 977.8 -- 65
2020-09-18 06:00:00 22.1 29 Este 41 Este 0 977.4 -- 64
2020-09-18 05:00:00 22.4 23 Este 41 Este 0 977.8 -- 63
2020-09-18 04:00:00 22.8 28 Este 45 Este 0 977.6 -- 58
2020-09-18 03:00:00 23 25 Este 46 Este 0 978.3 -- 57
2020-09-18 02:00:00 23.2 35 Este 51 Este 0 978.2 -- 56
2020-09-18 01:00:00 23.8 38 Este 50 Este 0 978.1 -- 56
2020-09-18 00:00:00 24.5 31 Este 48 Este 0 978 -- 54
2020-09-17 23:00:00 25.5 30 Este 39 Este 0 978.2 -- 49
2020-09-17 22:00:00 26.2 27 Este 35 Este 0 977.8 -- 40
2020-09-17 21:00:00 26.8 24 Este 39 Este 0 977.3 -- 36
2020-09-17 20:00:00 27.9 31 Este 50 Este 0 977.3 -- 32
2020-09-17 19:00:00 29.3 34 Este 50 Este 0 977.2 -- 30
2020-09-17 18:00:00 30.4 31 Este 41 Este 0 977.5 -- 31
2020-09-17 17:00:00 31.3 28 Este 43 Este 0 977.7 -- 28
2020-09-17 16:00:00 31.1 27 Este 43 Este 0 978.1 -- 26
2020-09-17 15:00:00 30.9 30 Este 45 Este 0 978.6 -- 27
2020-09-17 14:00:00 29.7 27 Sudeste 39 Este 0 979.4 -- 34
2020-09-17 13:00:00 29 20 Este 35 Este 0 979.9 -- 37
2020-09-17 12:00:00 27 19 Este 30 Sudeste 0 980.6 -- 43
2020-09-17 11:00:00 25.3 14 Este 18 Este 0 981 -- 51
2020-09-17 10:00:00 23.3 2 Norte 10 Norte 0 981.1 -- 63
2020-09-17 09:00:00 21.8 3 Nordeste 6 Nordeste 0 981.3 -- 67
2020-09-17 08:00:00 21.8 6 Sudoeste 16 Sudoeste 0 981.2 -- 69
2020-09-17 07:00:00 22.2 11 Este 23 Este 0 980.8 -- 65
2020-09-17 06:00:00 22.9 16 Sudeste 24 Sudeste 0 980.9 -- 63
2020-09-17 05:00:00 23.2 14 Sudeste 29 Este 0 981.1 -- 62
2020-09-17 04:00:00 23.1 23 Este 40 Este 0 981.3 -- 63
2020-09-17 03:00:00 23.1 27 Este 38 Este 0 981.1 -- 60
2020-09-17 02:00:00 22.9 14 Sudeste 24 Este 0 981.6 -- 51
2020-09-17 01:00:00 23.8 14 Este 22 Este 0 981.7 -- 43
2020-09-17 00:00:00 24.2 4 Sudeste 14 Noroeste 0 981.6 -- 41
2020-09-16 23:00:00 25.2 4 Este 16 Norte 0 981.5 -- 38
2020-09-16 22:00:00 26.6 0 Calma 11 Oeste 0 981.1 -- 35
2020-09-16 21:00:00 27.8 10 Oeste 11 Oeste 0 980.6 -- 33
2020-09-16 20:00:00 30.7 8 Sudoeste 14 Este 0 980.5 -- 29
2020-09-16 19:00:00 32.7 6 Sudeste 17 Este 0 980.5 -- 24
2020-09-16 18:00:00 33.4 7 Sudeste 16 Noroeste 0 980.5 -- 23
2020-09-16 17:00:00 33.5 7 Noroeste 22 Sur 0 981 -- 23
2020-09-16 16:00:00 33.9 3 Norte 17 Sudeste 0 981.8 -- 22
2020-09-16 15:00:00 32.8 4 Noroeste 19 Sur 0 982.6 -- 27
2020-09-16 14:00:00 31.8 5 Este 12 Sudeste 0 983.4 -- 30
2020-09-16 13:00:00 29.8 6 Sudeste 12 Sur 0 984.2 -- 34
2020-09-16 12:00:00 28.1 2 Oeste 10 Sudoeste 0 984.7 -- 39
2020-09-16 11:00:00 25.3 4 Este 8 Este 0 985.1 -- 47
2020-09-16 10:00:00 22.1 0 Calma 6 Sur 0 985.4 -- 56
2020-09-16 09:00:00 18.6 2 Este 6 Nordeste 0 985.3 -- 65
2020-09-16 08:00:00 16.7 2 Sudeste 5 Nordeste 0 985 -- 65
2020-09-16 07:00:00 17 3 Sur 6 Sudeste 0 984.7 -- 66
2020-09-16 06:00:00 17.8 3 Este 6 Nordeste 0 984.7 -- 66
2020-09-16 05:00:00 19 3 Sudeste 6 Este 0 984.7 -- 64
2020-09-16 04:00:00 19.5 5 Oeste 10 Este 0 984.6 -- 59
2020-09-16 03:00:00 21.7 6 Este 16 Este 0 984.5 -- 54
2020-09-16 02:00:00 22.1 13 Este 21 Este 0 984.4 -- 54
2020-09-16 01:00:00 22.6 20 Este 25 Este 0 984.3 -- 52
2020-09-16 00:00:00 23.7 15 Este 25 Este 0 984.2 -- 47
2020-09-15 23:00:00 25.5 18 Este 23 Este 0 984 -- 40
2020-09-15 22:00:00 25.6 12 Este 17 Este 0 983.7 -- 40
2020-09-15 21:00:00 28 4 Este 12 Este 0 983 -- 31
2020-09-15 20:00:00 29.9 9 Este 22 Este 0 982.9 -- 29
2020-09-15 19:00:00 30.8 15 Este 21 Este 0 982.6 -- 27
2020-09-15 18:00:00 32.2 9 Nordeste 21 Este 0 982.7 -- 25
2020-09-15 17:00:00 32.7 8 Sudoeste 22 Sudeste 0 983.2 -- 24
2020-09-15 16:00:00 32.1 10 Sudeste 29 Sur 0 983.8 -- 26
2020-09-15 15:00:00 31.2 16 Sur 29 Sur 0 984.5 -- 27
2020-09-15 14:00:00 30.3 13 Sudeste 25 Este 0 985.1 -- 32
2020-09-15 13:00:00 28.2 15 Este 28 Sudeste 0 985.9 -- 39
2020-09-15 12:00:00 26.7 9 Este 22 Este 0 986.7 -- 43
2020-09-15 11:00:00 24.9 10 Este 23 Este 0 987 -- 50
2020-09-15 10:00:00 22.9 9 Este 13 Este 0 986.9 -- 58
2020-09-15 09:00:00 20.6 5 Sudeste 11 Norte 0 987.1 -- 67
2020-09-15 08:00:00 19.6 9 Norte 19 Este 0 986.7 -- 71
2020-09-15 07:00:00 20.1 14 Este 21 Sudeste 0 986.4 -- 68
2020-09-15 06:00:00 20.7 18 Sudeste 28 Este 0 985.8 -- 65
2020-09-15 05:00:00 21.1 17 Este 42 Este 0 985.6 -- 61
2020-09-15 04:00:00 22 34 Este 52 Este 0.2 984.7 -- 57
2020-09-15 03:00:00 23 34 Este 46 Este 0 985.4 -- 53
2020-09-15 02:00:00 23.9 22 Sudeste 39 Este 0 985.5 -- 49
2020-09-15 01:00:00 24.2 24 Este 32 Este 0 984.8 -- 46
2020-09-15 00:00:00 25.4 17 Este 25 Este 0 984.8 -- 39
2020-09-14 23:00:00 25.3 19 Este 24 Este 0 984.6 -- 39
2020-09-14 22:00:00 26.3 15 Este 27 Este 0 984.4 -- 38
2020-09-14 21:00:00 27.4 16 Este 22 Este 0 984 -- 35
2020-09-14 20:00:00 29.8 19 Este 33 Este 0 983.9 -- 30
2020-09-14 19:00:00 31.9 21 Este 39 Este 0 983.6 -- 24
2020-09-14 18:00:00 31.6 26 Este 37 Este 0 983.9 -- 25
2020-09-14 17:00:00 32.4 24 Este 42 Este 0 984.3 -- 22
2020-09-14 16:00:00 32.8 25 Este 40 Este 0 984.9 -- 21
2020-09-14 15:00:00 32.2 24 Este 40 Este 0 985.6 -- 23
2020-09-14 14:00:00 30.8 22 Este 32 Sudeste 0 986.5 -- 26
2020-09-14 13:00:00 29.7 18 Sudeste 32 Este 0 987.2 -- 30
2020-09-14 12:00:00 27.5 22 Este 33 Este 0 987.6 -- 34
2020-09-14 11:00:00 25.4 8 Sur 26 Este 0 988.1 -- 39
2020-09-14 10:00:00 22.9 17 Este 23 Este 0 988 -- 45
2020-09-14 09:00:00 21.4 9 Sudeste 17 Sudeste 0 987.8 -- 50
2020-09-14 08:00:00 18.8 13 Sudeste 23 Este 0 987.5 -- 59
2020-09-14 07:00:00 19.2 10 Este 23 Este 0 987.1 -- 58
2020-09-14 06:00:00 19.3 15 Este 22 Este 0 987.1 -- 58
2020-09-14 05:00:00 20.6 13 Este 33 Este 0 987.1 -- 53
2020-09-14 04:00:00 20.8 24 Este 32 Este 0 986.8 -- 51
2020-09-14 03:00:00 20.8 18 Este 29 Este 0 987.1 -- 49
2020-09-14 02:00:00 21.3 18 Este 28 Este 0 986.9 -- 46
2020-09-14 01:00:00 21.7 20 Este 25 Este 0 986.8 -- 45
2020-09-14 00:00:00 23.5 18 Este 26 Este 0 986.7 -- 37
2020-09-13 23:00:00 24.7 15 Este 28 Este 0 986.5 -- 36
2020-09-13 22:00:00 25.3 19 Este 28 Este 0 985.9 -- 35
2020-09-13 21:00:00 27.3 21 Este 28 Este 0 985.1 -- 32
2020-09-13 20:00:00 30.5 19 Este 32 Este 0 984.8 -- 25
2020-09-13 19:00:00 33.1 27 Este 36 Este 0 984.5 -- 18
2020-09-13 18:00:00 33.7 28 Este 40 Este 0 984.6 -- 19
2020-09-13 17:00:00 33.9 26 Este 37 Este 0 985 -- 19
2020-09-13 16:00:00 33.2 23 Este 41 Este 0 985.6 -- 21
2020-09-13 15:00:00 31.9 26 Este 38 Este 0 986.3 -- 25
2020-09-13 14:00:00 31.1 23 Este 37 Este 0 987 -- 26
2020-09-13 13:00:00 28.8 23 Este 34 Este 0 987.7 -- 32
2020-09-13 12:00:00 26.9 19 Este 28 Este 0 988.3 -- 37
2020-09-13 11:00:00 24.3 13 Este 20 Este 0 988.2 -- 43
2020-09-13 10:00:00 20.3 5 Sur 7 Sur 0 988.3 -- 52
2020-09-13 09:00:00 16.3 3 Norte 8 Sudeste 0 987.9 -- 63
2020-09-13 08:00:00 13.1 3 Sudeste 5 Nordeste 0 987.4 -- 70
2020-09-13 07:00:00 13.5 4 Nordeste 8 Sur 0 987.1 -- 73
2020-09-13 06:00:00 14.3 4 Sudeste 10 Noroeste 0 986.7 -- 69
2020-09-13 05:00:00 15.4 2 Norte 13 Sur 0 986.6 -- 68
2020-09-13 04:00:00 15.5 2 Sudoeste 6 Este 0 986.5 -- 60
2020-09-13 03:00:00 16.5 5 Este 8 Este 0 986.5 -- 68
2020-09-13 02:00:00 16.3 5 Sudeste 9 Sudeste 0 986.6 -- 57
2020-09-13 01:00:00 18.7 4 Norte 6 Norte 0 986.4 -- 51
2020-09-13 00:00:00 20.4 2 Sudoeste 12 Oeste 0 986.1 -- 51
2020-09-12 23:00:00 21.9 6 Oeste 14 Sudoeste 0 985.6 -- 41
2020-09-12 22:00:00 22.3 3 Norte 17 Nordeste 0 984.7 -- 29
2020-09-12 21:00:00 24.6 10 Oeste 15 Oeste 0 984 -- 26
2020-09-12 20:00:00 29.4 11 Sudoeste 18 Sudoeste 0 983.3 -- 19
2020-09-12 19:00:00 31.2 9 Sudoeste 15 Sudoeste 0 983.1 -- 16
2020-09-12 18:00:00 31.9 8 Oeste 15 Oeste 0 983.2 -- 13
2020-09-12 17:00:00 31.5 7 Noroeste 16 Sudoeste 0 983.4 -- 18
2020-09-12 16:00:00 30.9 5 Oeste 16 Sudoeste 0 983.7 -- 23
2020-09-12 15:00:00 29.9 6 Noroeste 14 Norte 0 984 -- 30
2020-09-12 14:00:00 28 5 Noroeste 16 Noroeste 0 984.5 -- 38
2020-09-12 13:00:00 26.3 7 Sudoeste 17 Oeste 0 984.9 -- 45
2020-09-12 12:00:00 24.4 6 Noroeste 13 Noroeste 0 985 -- 51
2020-09-12 11:00:00 22.2 6 Noroeste 13 Noroeste 0 985.1 -- 60
2020-09-12 10:00:00 19.6 0 Calma 5 Sudeste 0 984.8 -- 68
2020-09-12 09:00:00 15.4 0 Calma 5 Oeste 0 984.5 -- 73
2020-09-12 08:00:00 13.3 4 Oeste 5 Oeste 0 983.8 -- 77
2020-09-12 07:00:00 14.2 2 Noroeste 7 Norte 0 983.2 -- 81
2020-09-12 06:00:00 15 3 Sur 6 Sur 0 982.8 -- 81
2020-09-12 05:00:00 15.9 5 Norte 7 Noroeste 0 982.5 -- 79
2020-09-12 04:00:00 17 5 Noroeste 10 Noroeste 0 982.3 -- 78
2020-09-12 03:00:00 17.9 4 Sudeste 13 Oeste 0 982.1 -- 77
2020-09-12 02:00:00 19.5 13 Oeste 21 Oeste 0 981.8 -- 75
2020-09-12 01:00:00 20.1 14 Oeste 20 Oeste 0 981.6 -- 73
2020-09-12 00:00:00 21.5 11 Noroeste 20 Oeste 0 981.4 -- 67
2020-09-11 23:00:00 22.6 14 Oeste 19 Oeste 0 981 -- 60
2020-09-11 22:00:00 23.8 11 Noroeste 21 Noroeste 0 980.2 -- 48
2020-09-11 21:00:00 25.8 13 Noroeste 18 Noroeste 0 979.3 -- 40
2020-09-11 20:00:00 28.8 17 Noroeste 26 Noroeste 0 978.8 -- 32
2020-09-11 19:00:00 30.7 16 Noroeste 23 Noroeste 0 978.6 -- 26
2020-09-11 18:00:00 31.4 14 Oeste 27 Noroeste 0 978.8 -- 25
2020-09-11 17:00:00 31 10 Oeste 23 Noroeste 0 979.1 -- 26
2020-09-11 16:00:00 30.3 12 Oeste 24 Oeste 0 979.6 -- 30
2020-09-11 15:00:00 29.9 7 Noroeste 23 Sudoeste 0 980.1 -- 31
2020-09-11 14:00:00 28.3 9 Noroeste 24 Noroeste 0 980.5 -- 35
2020-09-11 13:00:00 26.9 10 Noroeste 21 Oeste 0 981 -- 41
2020-09-11 12:00:00 24.6 14 Noroeste 27 Oeste 0 981.5 -- 49
2020-09-11 11:00:00 22.6 17 Noroeste 26 Noroeste 0 981.8 -- 56
2020-09-11 10:00:00 20.5 9 Noroeste 18 Noroeste 0 981.9 -- 62
2020-09-11 09:00:00 18 3 Sudoeste 6 Noroeste 0 981.8 -- 67
2020-09-11 08:00:00 15.7 5 Noroeste 7 Noroeste 0 981.5 -- 74
2020-09-11 07:00:00 15.1 2 Sudeste 6 Norte 0 981.5 -- 75
2020-09-11 06:00:00 16.4 4 Nordeste 6 Norte 0 981.3 -- 74
2020-09-11 05:00:00 17.3 3 Norte 13 Noroeste 0 981.5 -- 69
2020-09-11 04:00:00 17.8 12 Noroeste 19 Noroeste 0 981.4 -- 69
2020-09-11 03:00:00 18.6 14 Noroeste 26 Oeste 0 981.8 -- 64
2020-09-11 02:00:00 19.3 18 Noroeste 32 Noroeste 0 982.2 -- 61
2020-09-11 01:00:00 19.9 22 Noroeste 33 Oeste 0 982.5 -- 59
2020-09-11 00:00:00 20.6 25 Oeste 36 Oeste 0 982.4 -- 56
2020-09-10 23:00:00 21.4 24 Oeste 36 Noroeste 0 982.3 -- 53
2020-09-10 22:00:00 22.3 23 Noroeste 38 Noroeste 0 982 -- 48
2020-09-10 21:00:00 24 26 Noroeste 47 Noroeste 0 981.5 -- 39
2020-09-10 20:00:00 26.5 35 Noroeste 53 Noroeste 0 981.1 -- 31
2020-09-10 19:00:00 28.2 34 Noroeste 49 Noroeste 0 981.1 -- 28
2020-09-10 18:00:00 29.4 36 Noroeste 52 Noroeste 0 981.1 -- 26
2020-09-10 17:00:00 30.2 38 Noroeste 51 Noroeste 0 981.3 -- 24
2020-09-10 16:00:00 30.7 36 Noroeste 51 Noroeste 0 981.8 -- 22
2020-09-10 15:00:00 30.8 30 Noroeste 49 Noroeste 0 982.4 -- 22
2020-09-10 14:00:00 29 28 Noroeste 42 Noroeste 0 983 -- 26
2020-09-10 13:00:00 29.1 26 Oeste 39 Oeste 0 983.7 -- 25
2020-09-10 12:00:00 26.4 28 Oeste 42 Noroeste 0 984.4 -- 29
2020-09-10 11:00:00 23.8 27 Noroeste 42 Oeste 0 984.7 -- 35
2020-09-10 10:00:00 21.9 22 Oeste 34 Noroeste 0 984.7 -- 41
2020-09-10 09:00:00 19.5 0 Calma 27 Oeste 0 984.8 -- 51
2020-09-10 08:00:00 18 17 Oeste 30 Oeste 0 984.6 -- 56
2020-09-10 07:00:00 18 21 Oeste 30 Oeste 0 984.5 -- 57
2020-09-10 06:00:00 16.5 3 Nordeste 10 Sudeste 0 985 -- 57
2020-09-10 05:00:00 16.4 3 Norte 8 Oeste 0 985.3 -- 58
2020-09-10 04:00:00 16.2 3 Este 8 Sudoeste 0 985.7 -- 61
2020-09-10 03:00:00 17.4 4 Oeste 10 Sudoeste 0 985.7 -- 57
2020-09-10 02:00:00 18.5 6 Noroeste 10 Oeste 0 986.3 -- 54
2020-09-10 01:00:00 19.9 6 Oeste 17 Nordeste 0 986.5 -- 54
2020-09-10 00:00:00 21.8 9 Este 19 Norte 0 986.4 -- 57
2020-09-09 23:00:00 23.6 5 Norte 30 Norte 0 985.8 -- 42
2020-09-09 22:00:00 25.4 22 Norte 41 Norte 0 984.5 -- 34
2020-09-09 21:00:00 26.5 26 Norte 40 Norte 0 982.9 -- 32
2020-09-09 20:00:00 28.8 26 Noroeste 46 Noroeste 0 982.6 -- 27
2020-09-09 19:00:00 30 36 Oeste 48 Oeste 0 982.3 -- 27
2020-09-09 18:00:00 29.8 19 Oeste 33 Noroeste 0 982.7 -- 27
2020-09-09 17:00:00 30.9 10 Sudoeste 28 Oeste 0 983.2 -- 23
2020-09-09 16:00:00 29.5 11 Oeste 27 Sur 0 984.1 -- 24
2020-09-09 15:00:00 28.4 13 Oeste 32 Oeste 0 984.9 -- 26
2020-09-09 14:00:00 27 9 Sudoeste 24 Sur 0 985.7 -- 31
2020-09-09 13:00:00 25.1 9 Sur 16 Sudoeste 0 986.5 -- 36
2020-09-09 12:00:00 22.6 6 Sudoeste 12 Sudoeste 0 987.4 -- 43
2020-09-09 11:00:00 21 3 Sur 10 Este 0 987.9 -- 46
2020-09-09 10:00:00 16.3 5 Nordeste 11 Nordeste 0 987.8 -- 60
2020-09-09 09:00:00 13.3 3 Este 9 Sur 0 987.8 -- 69
2020-09-09 08:00:00 12 6 Sur 10 Sudoeste 0 987.3 -- 71
2020-09-09 07:00:00 13 6 Sur 8 Sur 0 987.1 -- 67
2020-09-09 06:00:00 13.5 0 Calma 7 Este 0 987.2 -- 64
2020-09-09 05:00:00 14.8 2 Oeste 15 Este 0 987.2 -- 65
2020-09-09 04:00:00 17.1 11 Este 14 Este 0 987.2 -- 62
2020-09-09 03:00:00 17.6 8 Este 21 Este 0 987.6 -- 59
2020-09-09 02:00:00 18.3 16 Sudeste 22 Sudeste 0 987.7 -- 49
2020-09-09 01:00:00 18.9 7 Sudeste 16 Este 0 987.6 -- 40
2020-09-09 00:00:00 19.4 3 Este 8 Norte 0 987.7 -- 35
2020-09-08 23:00:00 20 5 Norte 14 Norte 0 987.5 -- 32
2020-09-08 22:00:00 21.4 7 Norte 9 Sudoeste 0 987.3 -- 30
2020-09-08 21:00:00 24 8 Sudoeste 15 Sudoeste 0 986.8 -- 26
2020-09-08 20:00:00 26.7 13 Sudoeste 20 Sudoeste 0 986.5 -- 22
2020-09-08 19:00:00 28.1 9 Sudoeste 14 Oeste 0 986.4 -- 19
2020-09-08 18:00:00 28.6 8 Noroeste 17 Norte 0 986.4 -- 17
2020-09-08 17:00:00 28.1 10 Sudoeste 18 Oeste 0 986.7 -- 19
2020-09-08 16:00:00 27.6 4 Nordeste 18 Oeste 0 987.3 -- 20
2020-09-08 15:00:00 27.3 4 Nordeste 17 Noroeste 0 988 -- 20
2020-09-08 14:00:00 25.7 6 Oeste 20 Noroeste 0 988.6 -- 23
2020-09-08 13:00:00 23.4 10 Oeste 21 Noroeste 0 989.6 -- 30
2020-09-08 12:00:00 21.3 9 Oeste 19 Noroeste 0 990.1 -- 40
2020-09-08 11:00:00 19.3 9 Oeste 17 Noroeste 0 990.5 -- 48
2020-09-08 10:00:00 16.6 13 Noroeste 19 Noroeste 0 990.3 -- 59
2020-09-08 09:00:00 13 2 Sur 8 Noroeste 0 990.3 -- 70
2020-09-08 08:00:00 11 3 Noroeste 13 Noroeste 0 989.8 -- 77
2020-09-08 07:00:00 11.6 10 Noroeste 15 Noroeste 0 989.4 -- 77
2020-09-08 06:00:00 12.4 4 Norte 5 Nordeste 0 989 -- 75
2020-09-08 05:00:00 13.1 4 Norte 24 Noroeste 0 988.8 -- 71
2020-09-08 04:00:00 14.8 19 Noroeste 29 Oeste 0 988.6 -- 67
2020-09-08 03:00:00 15.5 20 Oeste 31 Oeste 0 988.4 -- 66
2020-09-08 02:00:00 15.6 21 Noroeste 32 Noroeste 0 988.4 -- 66
2020-09-08 01:00:00 16.1 25 Noroeste 43 Noroeste 0 988.3 -- 63
2020-09-08 00:00:00 16.3 32 Noroeste 49 Noroeste 0 988 -- 61
2020-09-07 23:00:00 16.9 37 Noroeste 52 Oeste 0 987.2 -- 58
2020-09-07 22:00:00 17.4 26 Oeste 48 Noroeste 0 987 -- 54
2020-09-07 21:00:00 18.7 37 Noroeste 50 Noroeste 0 986.2 -- 47
2020-09-07 20:00:00 20.5 36 Noroeste 58 Noroeste 0 985.5 -- 41
2020-09-07 19:00:00 22.3 41 Noroeste 62 Noroeste 0 985.1 -- 30
2020-09-07 18:00:00 22.8 45 Noroeste 62 Noroeste 0 984.9 -- 30
2020-09-07 17:00:00 23.3 42 Noroeste 58 Noroeste 0 984.7 -- 28
2020-09-07 16:00:00 23.7 38 Noroeste 63 Noroeste 0 985 -- 28
2020-09-07 15:00:00 22.5 41 Noroeste 59 Noroeste 0 985.4 -- 29
2020-09-07 14:00:00 22.5 37 Noroeste 61 Noroeste 0 985.7 -- 30
2020-09-07 13:00:00 21.9 39 Noroeste 56 Oeste 0 986 -- 31
2020-09-07 12:00:00 21.2 32 Noroeste 50 Noroeste 0 986.3 -- 34
2020-09-07 11:00:00 19.1 30 Noroeste 62 Noroeste 0 986.3 -- 43
2020-09-07 10:00:00 17.3 45 Noroeste 63 Noroeste 0 985.3 -- 50
2020-09-07 09:00:00 16 26 Oeste 39 Oeste 0 986 -- 60
2020-09-07 08:00:00 14.6 21 Oeste 46 Noroeste 0 985.7 -- 66
2020-09-07 07:00:00 14.8 36 Noroeste 54 Noroeste 0 984.8 -- 65
2020-09-07 06:00:00 14.8 28 Noroeste 43 Noroeste 0 985.1 -- 63
2020-09-07 05:00:00 15.2 27 Noroeste 49 Noroeste 0 985 -- 61
2020-09-07 04:00:00 15.6 32 Noroeste 45 Noroeste 0 985.4 -- 62
2020-09-07 03:00:00 15.7 28 Noroeste 46 Noroeste 0 985.7 -- 62
2020-09-07 02:00:00 15.6 33 Noroeste 50 Noroeste 0 986 -- 60
2020-09-07 01:00:00 16 36 Noroeste 54 Noroeste 0 985.7 -- 59
2020-09-07 00:00:00 16.4 32 Noroeste 52 Noroeste 0 985.6 -- 62
2020-09-06 23:00:00 17.1 36 Noroeste 55 Noroeste 0 985.2 -- 57
2020-09-06 22:00:00 17.4 37 Noroeste 53 Noroeste 0 984.8 -- 56
2020-09-06 21:00:00 18 37 Noroeste 61 Noroeste 0 984.5 -- 56
2020-09-06 20:00:00 20 42 Noroeste 58 Noroeste 0 983.8 -- 48
2020-09-06 19:00:00 21.9 37 Noroeste 55 Noroeste 0 983.5 -- 42
2020-09-06 18:00:00 22.9 40 Noroeste 58 Noroeste 0 983.1 -- 38
2020-09-06 17:00:00 23.7 38 Noroeste 58 Oeste 0 983.4 -- 37
2020-09-06 16:00:00 23.5 37 Noroeste 54 Noroeste 0 983.9 -- 37
2020-09-06 15:00:00 22.8 36 Noroeste 55 Noroeste 0 984.6 -- 43
2020-09-06 14:00:00 22 38 Noroeste 54 Noroeste 0 985.1 -- 46
2020-09-06 13:00:00 22.2 35 Noroeste 54 Noroeste 0 985.4 -- 46
2020-09-06 12:00:00 21.1 37 Noroeste 54 Noroeste 0 985.5 -- 51
2020-09-06 11:00:00 20.2 38 Noroeste 54 Noroeste 0 985.7 -- 54
2020-09-06 10:00:00 19.1 39 Noroeste 49 Noroeste 0 985.3 -- 60
2020-09-06 09:00:00 17.5 26 Noroeste 38 Noroeste 0 985.3 -- 67
2020-09-06 08:00:00 16.8 24 Noroeste 38 Noroeste 0 985.3 -- 71
2020-09-06 07:00:00 16.8 27 Noroeste 40 Noroeste 0 985.1 -- 71
2020-09-06 06:00:00 17.1 26 Noroeste 39 Noroeste 0 985.4 -- 71
2020-09-06 05:00:00 17.5 26 Noroeste 41 Noroeste 0 985.5 -- 68
2020-09-06 04:00:00 17.7 29 Noroeste 42 Noroeste 0 985.9 -- 69
2020-09-06 03:00:00 17.7 29 Noroeste 43 Noroeste 0 985.9 -- 69
2020-09-06 02:00:00 18 33 Noroeste 43 Noroeste 0 985.8 -- 67
2020-09-06 01:00:00 18.4 30 Noroeste 42 Noroeste 0 985.9 -- 67
2020-09-06 00:00:00 18.8 28 Noroeste 44 Noroeste 0 985.8 -- 65
2020-09-05 23:00:00 19.2 30 Noroeste 41 Noroeste 0 985.6 -- 68
2020-09-05 22:00:00 19.8 24 Noroeste 36 Noroeste 0 985.3 -- 67
2020-09-05 21:00:00 20.7 22 Noroeste 41 Noroeste 0 984.7 -- 62
2020-09-05 20:00:00 23.2 28 Noroeste 45 Noroeste 0 984 -- 54
2020-09-05 19:00:00 25.7 32 Noroeste 54 Noroeste 0 983.7 -- 44
2020-09-05 18:00:00 26.8 39 Noroeste 53 Noroeste 0 983.8 -- 42
2020-09-05 17:00:00 27.7 37 Noroeste 51 Noroeste 0 984 -- 38
2020-09-05 16:00:00 28.2 36 Noroeste 49 Noroeste 0 984.4 -- 40
2020-09-05 15:00:00 29.7 24 Noroeste 36 Noroeste 0 985 -- 38
2020-09-05 14:00:00 28.6 24 Noroeste 34 Oeste 0 985.6 -- 39
2020-09-05 13:00:00 27.5 19 Noroeste 32 Noroeste 0 986.3 -- 42
2020-09-05 12:00:00 26 20 Noroeste 32 Noroeste 0 986.8 -- 47
2020-09-05 11:00:00 24.6 12 Noroeste 21 Noroeste 0 987 -- 48
2020-09-05 10:00:00 22.4 2 Noroeste 6 Norte 0 987 -- 57
2020-09-05 09:00:00 19.4 3 Sudoeste 5 Sudoeste 0 986.8 -- 65
2020-09-05 08:00:00 18.7 0 Calma 14 Este 0 986 -- 73
2020-09-05 07:00:00 18.5 9 Este 18 Este 0 985.5 -- 74
2020-09-05 06:00:00 19.8 10 Sudeste 14 Sudeste 0 985.5 -- 70
2020-09-05 05:00:00 20.1 7 Sudeste 12 Sudeste 0 985.6 -- 67
2020-09-05 04:00:00 20.2 6 Nordeste 26 Este 0 985.7 -- 61
2020-09-05 03:00:00 20.4 24 Este 28 Este 0 985.6 -- 53
2020-09-05 02:00:00 21.2 19 Este 22 Este 0 985.9 -- 44
2020-09-05 01:00:00 21.6 15 Este 21 Este 0 985.8 -- 44
2020-09-05 00:00:00 22.8 13 Este 20 Este 0 985.8 -- 41
2020-09-04 23:00:00 24.3 17 Este 22 Este 0 985.4 -- 37
2020-09-04 22:00:00 25.7 15 Este 20 Este 0 985 -- 35
2020-09-04 21:00:00 27.5 17 Este 27 Este 0 984.4 -- 32
2020-09-04 20:00:00 31.1 22 Este 32 Este 0 984.1 -- 25
2020-09-04 19:00:00 32.6 23 Este 35 Este 0 984.3 -- 21
2020-09-04 18:00:00 33 25 Este 37 Este 0 984.6 -- 19
2020-09-04 17:00:00 33.1 24 Este 41 Este 0 985.3 -- 19
2020-09-04 16:00:00 32.2 24 Este 37 Este 0 986.1 -- 24
2020-09-04 15:00:00 30.9 25 Este 38 Este 0 987.2 -- 27
2020-09-04 14:00:00 29.6 24 Este 38 Este 0 987.9 -- 31
2020-09-04 13:00:00 27.8 20 Este 34 Nordeste 0 988.9 -- 38
2020-09-04 12:00:00 26.1 21 Este 29 Este 0 989.2 -- 46
2020-09-04 11:00:00 24 22 Este 28 Sudeste 0 989.4 -- 54
2020-09-04 10:00:00 21.3 17 Este 22 Este 0 989.2 -- 64
2020-09-04 09:00:00 17.5 5 Sudeste 10 Sudeste 0 989.1 -- 66
2020-09-04 08:00:00 15.3 8 Sudeste 16 Este 0 988.7 -- 68
2020-09-04 07:00:00 17.2 9 Sudeste 14 Este 0 988.2 -- 76
2020-09-04 06:00:00 17.4 3 Nordeste 10 Este 0 987.9 -- 70
2020-09-04 05:00:00 18.5 5 Sudeste 15 Este 0 987.8 -- 61
2020-09-04 04:00:00 18.4 13 Este 18 Este 0 987.9 -- 57
2020-09-04 03:00:00 18.5 12 Este 17 Este 0 988.1 -- 52
2020-09-04 02:00:00 18.3 10 Este 14 Este 0 988.1 -- 47
2020-09-04 01:00:00 20 5 Nordeste 14 Nordeste 0 988 -- 38
2020-09-04 00:00:00 19.1 3 Sudeste 7 Sudeste 0 987.5 -- 38
2020-09-03 23:00:00 20.4 8 Noroeste 9 Noroeste 0 987.1 -- 33
2020-09-03 22:00:00 23.4 7 Sudeste 12 Sur 0 986.4 -- 28
2020-09-03 21:00:00 26.2 10 Sudeste 13 Este 0 985.6 -- 24
2020-09-03 20:00:00 29.9 12 Este 16 Sudeste 0 985.1 -- 21
2020-09-03 19:00:00 31.8 4 Oeste 12 Sudoeste 0 985 -- 17
2020-09-03 18:00:00 31.8 6 Noroeste 13 Noroeste 0 985 -- 16
2020-09-03 17:00:00 30.8 4 Este 14 Norte 0 985.4 -- 18
2020-09-03 16:00:00 30.2 6 Oeste 12 Noroeste 0 986 -- 19
2020-09-03 15:00:00 28.4 6 Noroeste 12 Oeste 0 986.7 -- 22
2020-09-03 14:00:00 26.4 4 Oeste 12 Sur 0 987.1 -- 26
2020-09-03 13:00:00 24.4 2 Nordeste 12 Sur 0 987.6 -- 32
2020-09-03 12:00:00 22 4 Sur 12 Sudoeste 0 988.1 -- 40
2020-09-03 11:00:00 19.5 3 Sur 7 Sur 0 988.2 -- 48
2020-09-03 10:00:00 17 0 Calma 4 Sudoeste 0 987.8 -- 55
2020-09-03 09:00:00 12.8 0 Calma 5 Sudeste 0 987.4 -- 66
2020-09-03 08:00:00 9.9 4 Este 5 Sudeste 0 986.9 -- 75
2020-09-03 07:00:00 10.6 2 Sudeste 4 Sudeste 0 986.5 -- 71
2020-09-03 06:00:00 12.3 3 Sur 8 Sudoeste 0 986.1 -- 70
2020-09-03 05:00:00 12.9 2 Sudoeste 8 Sudoeste 0 985.8 -- 67
2020-09-03 04:00:00 13.9 6 Oeste 12 Oeste 0 985.5 -- 65
2020-09-03 03:00:00 14.8 7 Oeste 20 Noroeste 0 985.4 -- 63
2020-09-03 02:00:00 16.3 17 Noroeste 28 Oeste 0 985.1 -- 60
2020-09-03 01:00:00 16.7 18 Oeste 27 Oeste 0 984.9 -- 59
2020-09-03 00:00:00 17.4 21 Oeste 31 Noroeste 0 984.7 -- 57
2020-09-02 23:00:00 18 19 Noroeste 26 Noroeste 0 984.5 -- 55
2020-09-02 22:00:00 19.2 14 Oeste 22 Noroeste 0 983.9 -- 49
2020-09-02 21:00:00 21.8 17 Noroeste 32 Noroeste 0 983 -- 38
2020-09-02 20:00:00 24.6 27 Noroeste 41 Noroeste 0 982.1 -- 30
2020-09-02 19:00:00 26 29 Noroeste 44 Noroeste 0 981.7 -- 24
2020-09-02 18:00:00 26.6 31 Noroeste 46 Noroeste 0 981.3 -- 24
2020-09-02 17:00:00 26.9 28 Noroeste 46 Oeste 0 981.4 -- 23
2020-09-02 16:00:00 26.7 30 Noroeste 45 Oeste 0 981.7 -- 23
2020-09-02 15:00:00 26.6 22 Noroeste 40 Noroeste 0 982 -- 23
2020-09-02 14:00:00 25.4 18 Oeste 31 Oeste 0 982.4 -- 27
2020-09-02 13:00:00 24.3 18 Noroeste 39 Norte 0 982.6 -- 30
2020-09-02 12:00:00 22.9 24 Noroeste 43 Noroeste 0 983 -- 33
2020-09-02 11:00:00 21.1 31 Noroeste 47 Noroeste 0 982.8 -- 43
2020-09-02 10:00:00 18.9 27 Oeste 42 Oeste 0 982.5 -- 57
2020-09-02 09:00:00 16.8 26 Noroeste 42 Oeste 0 982.2 -- 65
2020-09-02 08:00:00 15.9 28 Oeste 39 Oeste 0 982.1 -- 68
2020-09-02 07:00:00 15.8 24 Noroeste 35 Noroeste 0 981.5 -- 67
2020-09-02 06:00:00 16.3 28 Oeste 36 Oeste 0 981.2 -- 65
2020-09-02 05:00:00 16 18 Oeste 43 Oeste 0 981.3 -- 67
2020-09-02 04:00:00 16.9 30 Oeste 41 Oeste 0 981 -- 64
2020-09-02 03:00:00 17.2 28 Oeste 40 Oeste 0 981 -- 64
2020-09-02 02:00:00 17.4 27 Noroeste 41 Oeste 0 981.1 -- 66
2020-09-02 01:00:00 17.9 26 Oeste 40 Noroeste 0 981.2 -- 65
2020-09-02 00:00:00 18.7 29 Oeste 42 Oeste 0 980.7 -- 62
2020-09-01 23:00:00 19.5 21 Oeste 32 Oeste 0 980.4 -- 58
2020-09-01 22:00:00 20.4 19 Oeste 36 Noroeste 0 979.8 -- 46
2020-09-01 21:00:00 22.1 21 Noroeste 38 Noroeste 0 979 -- 34
2020-09-01 20:00:00 24.3 23 Norte 35 Noroeste 0 978.2 -- 31
2020-09-01 19:00:00 26 24 Noroeste 35 Noroeste 0 977.6 -- 23
2020-09-01 18:00:00 27.2 24 Noroeste 33 Noroeste 0 977.6 -- 20
2020-09-01 17:00:00 27.8 18 Noroeste 32 Noroeste 0 977.9 -- 16
2020-09-01 16:00:00 27.3 14 Oeste 30 Noroeste 0 978.3 -- 20
2020-09-01 15:00:00 27.1 13 Noroeste 23 Noroeste 0 979 -- 22
2020-09-01 14:00:00 26.2 6 Oeste 17 Noroeste 0 979.6 -- 21
2020-09-01 13:00:00 24 9 Oeste 20 Oeste 0 980.1 -- 28
2020-09-01 12:00:00 21.5 12 Oeste 21 Oeste 0 980.8 -- 39
2020-09-01 11:00:00 20.9 14 Oeste 20 Oeste 0 980.7 -- 39
2020-09-01 10:00:00 17.6 5 Oeste 13 Sudoeste 0 980.8 -- 54
2020-09-01 09:00:00 14.7 3 Sudoeste 6 Oeste 0 980.8 -- 64
2020-09-01 08:00:00 14 5 Sudoeste 11 Sudoeste 0 980.9 -- 70
2020-09-01 07:00:00 13.8 2 Sur 8 Sudoeste 0 980.6 -- 62
2020-09-01 06:00:00 13.9 -- -- -- -- -- 980.8 -- 60
2020-09-01 05:00:00 14.6 2 Oeste 5 Sudoeste 0 981.2 -- 58
2020-09-01 04:00:00 14.9 2 Norte 6 Sur 0 981.5 -- 55
2020-09-01 03:00:00 15.2 7 Sur 8 Este 0 982.1 -- 55
2020-09-01 02:00:00 16.4 3 Oeste 10 Oeste 0 982.3 -- 50
2020-09-01 01:00:00 17 10 Oeste 14 Oeste 0 982.2 -- 47
2020-09-01 00:00:00 17.8 9 Oeste 11 Oeste 0 982.2 -- 48
2020-08-31 23:00:00 19.4 5 Noroeste 12 Norte 0 981.9 -- 41
2020-08-31 22:00:00 20.9 9 Norte 14 Norte 0 981.7 -- 36
2020-08-31 21:00:00 22.3 8 Noroeste 16 Noroeste 0 981 -- 27
2020-08-31 20:00:00 24.5 12 Noroeste 30 Noroeste 0 980.8 -- 22
2020-08-31 19:00:00 26.1 20 Noroeste 28 Noroeste 0 981.1 -- 16
2020-08-31 18:00:00 26.3 17 Noroeste 30 Noroeste 0 981.5 -- 16
2020-08-31 17:00:00 26.1 13 Oeste 27 Noroeste 0 981.9 -- 20
2020-08-31 16:00:00 25.3 11 Noroeste 27 Noroeste 0 982.7 -- 23
2020-08-31 15:00:00 23.7 9 Noroeste 26 Noroeste 0 983.6 -- 29
2020-08-31 14:00:00 22.6 15 Noroeste 30 Noroeste 0 984.3 -- 32
2020-08-31 13:00:00 21 15 Oeste 32 Noroeste 0 984.9 -- 35
2020-08-31 12:00:00 19.5 22 Noroeste 36 Oeste 0 985.4 -- 41
2020-08-31 11:00:00 18.1 19 Oeste 32 Oeste 0 985.4 -- 52
2020-08-31 10:00:00 15.9 21 Oeste 28 Oeste 0 985.4 -- 61
2020-08-31 09:00:00 13.9 18 Oeste 26 Noroeste 0 985.4 -- 68
2020-08-31 08:00:00 12.4 24 Oeste 35 Oeste 0 985.2 -- 73
2020-08-31 07:00:00 11.9 21 Noroeste 32 Noroeste 0 984.7 -- 75
2020-08-31 06:00:00 12.6 22 Oeste 36 Oeste 0 984.8 -- 73
2020-08-31 05:00:00 12.9 19 Oeste 31 Oeste 0 985.1 -- 72
2020-08-31 04:00:00 13.3 19 Oeste 34 Noroeste 0 985.1 -- 70
2020-08-31 03:00:00 14 27 Noroeste 38 Oeste 0 985 -- 67
2020-08-31 02:00:00 14.1 22 Noroeste 34 Oeste 0 985.4 -- 66
2020-08-31 01:00:00 14.3 27 Oeste 36 Noroeste 0 985.2 -- 65
2020-08-31 00:00:00 14.8 28 Noroeste 42 Oeste 0 985 -- 64
2020-08-30 23:00:00 15 26 Oeste 40 Noroeste 0 984.5 -- 63
2020-08-30 22:00:00 15.7 27 Noroeste 40 Noroeste 0 983.8 -- 58
2020-08-30 21:00:00 16.9 29 Noroeste 54 Noroeste 0 983 -- 54
2020-08-30 20:00:00 18.8 38 Noroeste 53 Noroeste 0 982 -- 44
2020-08-30 19:00:00 20.8 37 Noroeste 57 Noroeste 0 981.1 -- 37
2020-08-30 18:00:00 21.1 35 Noroeste 55 Noroeste 0 980.8 -- 39
2020-08-30 17:00:00 20.2 42 Noroeste 58 Noroeste 0 980.7 -- 40
2020-08-30 16:00:00 20.8 39 Noroeste 59 Oeste 0 980.8 -- 41
2020-08-30 15:00:00 20 40 Noroeste 64 Noroeste 0 981.2 -- 44
2020-08-30 14:00:00 19.6 35 Noroeste 54 Noroeste 0 981.4 -- 45
2020-08-30 13:00:00 19.1 31 Noroeste 50 Oeste 0 981.5 -- 45
2020-08-30 12:00:00 17.9 30 Noroeste 46 Noroeste 0 981.3 -- 50
2020-08-30 11:00:00 17.6 28 Noroeste 46 Noroeste 0 980.9 -- 53
2020-08-30 10:00:00 16.4 30 Noroeste 43 Noroeste 0 980.3 -- 58
2020-08-30 09:00:00 14.1 23 Oeste 38 Noroeste 0 980 -- 67
2020-08-30 08:00:00 12.3 16 Noroeste 23 Oeste 0 979.6 -- 73
2020-08-30 07:00:00 12.4 12 Noroeste 27 Oeste 0 979.3 -- 73
2020-08-30 06:00:00 12.6 14 Noroeste 45 Oeste 0 978.8 -- 73
2020-08-30 05:00:00 12.9 19 Noroeste 44 Oeste 0 978.5 -- 72
2020-08-30 04:00:00 13.5 35 Oeste 48 Oeste 0 978.1 -- 69
2020-08-30 03:00:00 13.6 33 Oeste 47 Noroeste 0 978.1 -- 67
2020-08-30 02:00:00 13.5 22 Noroeste -- -- 0 978.4 -- 67
2020-08-30 01:00:00 13.9 20 Noroeste 47 Noroeste 0 978.1 -- 76
2020-08-30 00:00:00 15 32 Noroeste 45 Noroeste 0 977.7 -- 70
2020-08-29 23:00:00 15.5 30 Noroeste 49 Noroeste 0 977.1 -- 68
2020-08-29 22:00:00 16.6 36 Noroeste 50 Noroeste 0 975.9 -- 61
2020-08-29 21:00:00 17.6 39 Noroeste 56 Oeste 0 974.8 -- 55
2020-08-29 20:00:00 19.5 32 Noroeste 52 Noroeste 0 973.8 -- 47
2020-08-29 19:00:00 20 34 Noroeste 53 Noroeste 0 973.3 -- 45
2020-08-29 18:00:00 20.1 36 Noroeste 57 Oeste 0 972.9 -- 46
2020-08-29 17:00:00 23.4 39 Noroeste 57 Noroeste 0 972.1 -- 32
2020-08-29 16:00:00 23 30 Noroeste 47 Noroeste 0 972.1 -- 33
2020-08-29 15:00:00 22.8 36 Noroeste 55 Noroeste 0 972.5 -- 35
2020-08-29 14:00:00 21.8 37 Noroeste 55 Noroeste 0 972.7 -- 38
2020-08-29 13:00:00 21.1 36 Noroeste 50 Noroeste 0 973.1 -- 37
2020-08-29 12:00:00 20.5 34 Noroeste 52 Noroeste 0 973.5 -- 44
2020-08-29 11:00:00 19.5 28 Noroeste 43 Noroeste 0 973.7 -- 49
2020-08-29 10:00:00 17.8 25 Noroeste 40 Oeste 0 973.7 -- 55
2020-08-29 09:00:00 15.1 16 Noroeste 27 Oeste 0 973.8 -- 66
2020-08-29 08:00:00 13.8 19 Noroeste 23 Noroeste 0 973.5 -- 70
2020-08-29 07:00:00 14.3 18 Noroeste 32 Oeste 0 973.5 -- 68
2020-08-29 06:00:00 14.2 17 Noroeste 23 Noroeste 0 973.5 -- 70
2020-08-29 05:00:00 14.4 10 Noroeste 20 Noroeste 0 973.8 -- 70
2020-08-29 04:00:00 15.3 16 Noroeste 28 Noroeste 0 974 -- 67
2020-08-29 03:00:00 16 12 Noroeste 22 Noroeste 0 974.5 -- 65
2020-08-29 02:00:00 16.2 12 Oeste 29 Noroeste 0 974.8 -- 63
2020-08-29 01:00:00 17.2 26 Noroeste 44 Noroeste 0 975.1 -- 60
2020-08-29 00:00:00 17.7 31 Noroeste 43 Noroeste 0 974.9 -- 59
2020-08-28 23:00:00 17.8 30 Noroeste 53 Noroeste 0 975.2 -- 58
2020-08-28 22:00:00 18.3 38 Noroeste 54 Noroeste 0 974.8 -- 60
2020-08-28 21:00:00 18.8 33 Noroeste 50 Noroeste 0 974.7 -- 56
2020-08-28 20:00:00 19.4 36 Noroeste 54 Noroeste 0 974.4 -- 58
2020-08-28 19:00:00 21.2 37 Noroeste 55 Noroeste 0 973.8 -- 55
2020-08-28 18:00:00 22.7 35 Noroeste 51 Noroeste 0 973.3 -- 48
2020-08-28 17:00:00 23 32 Noroeste 57 Noroeste 0 973.8 -- 46
2020-08-28 16:00:00 23.6 41 Noroeste 54 Noroeste 0 973.9 -- 48
2020-08-28 15:00:00 24.8 36 Noroeste 54 Noroeste 0 974.3 -- 46
2020-08-28 14:00:00 25.7 35 Noroeste 48 Oeste 0 974.5 -- 44
2020-08-28 13:00:00 24.8 31 Noroeste 44 Noroeste 0 975 -- 49
2020-08-28 12:00:00 24.8 30 Noroeste 43 Noroeste 0 975.3 -- 53
2020-08-28 11:00:00 23.5 30 Noroeste 41 Noroeste 0 975.3 -- 61
2020-08-28 10:00:00 23.6 20 Noroeste 32 Noroeste 0 975.4 -- 64
2020-08-28 09:00:00 22.1 20 Noroeste 29 Noroeste 0 975.9 -- 70
2020-08-28 08:00:00 21.4 21 Noroeste 31 Noroeste 0 976.1 -- 72
2020-08-28 07:00:00 21.1 23 Noroeste 36 Noroeste 0 976.4 -- 73
2020-08-28 06:00:00 20.8 23 Oeste 31 Oeste 0 976.7 -- 72
2020-08-28 05:00:00 21.1 15 Noroeste 32 Noroeste 0 976.7 -- 71
2020-08-28 04:00:00 21.7 22 Oeste 31 Oeste 0 977.2 -- 69
2020-08-28 03:00:00 22 16 Oeste 26 Oeste 0 978.1 -- 68
2020-08-28 02:00:00 22.5 17 Noroeste 30 Oeste 0 978.7 -- 66
2020-08-28 01:00:00 22.8 23 Oeste 41 Noroeste 0 979.2 -- 66
2020-08-28 00:00:00 23.4 28 Noroeste 38 Noroeste 0 979.3 -- 65
2020-08-27 23:00:00 24.2 23 Noroeste 32 Noroeste 0 979.2 -- 62
2020-08-27 22:00:00 27.4 18 Noroeste 28 Norte 0 979 -- 50
2020-08-27 21:00:00 30.1 21 Norte 36 Norte 0 978.2 -- 39
2020-08-27 20:00:00 33.4 24 Norte 34 Norte 0 977.6 -- 31
2020-08-27 19:00:00 35.6 12 Oeste 28 Noroeste 0 977.9 -- 23
2020-08-27 18:00:00 35.7 19 Noroeste 28 Noroeste 0 978.4 -- 20
2020-08-27 17:00:00 36 9 Noroeste 24 Noroeste 0 979 -- 21
2020-08-27 16:00:00 35.5 9 Noroeste 20 Noroeste 0 980.1 -- 22
2020-08-27 15:00:00 34.5 9 Oeste 18 Oeste 0 981.1 -- 25
2020-08-27 14:00:00 32.6 10 Oeste 22 Noroeste 0 981.9 -- 30
2020-08-27 13:00:00 30.6 7 Noroeste 21 Noroeste 0 982.9 -- 35
2020-08-27 12:00:00 28.3 14 Noroeste 21 Noroeste 0 983.5 -- 43
2020-08-27 11:00:00 25.9 15 Noroeste 25 Noroeste 0 983.7 -- 52
2020-08-27 10:00:00 23.5 10 Noroeste 15 Noroeste 0 983.8 -- 64
2020-08-27 09:00:00 21.5 0 Calma 5 Oeste 0 984.1 -- 70
2020-08-27 08:00:00 19 3 Oeste 8 Noroeste 0 983.9 -- 75
2020-08-27 07:00:00 18.9 6 Noroeste 13 Oeste 0 983.5 -- 76
2020-08-27 06:00:00 19.7 10 Oeste 12 Oeste 0 983.5 -- 75
2020-08-27 05:00:00 20.3 7 Oeste 17 Noroeste 0 983.6 -- 75
2020-08-27 04:00:00 20.8 8 Oeste 15 Oeste 0 983.8 -- 74
2020-08-27 03:00:00 21.5 12 Oeste 27 Oeste 0 984 -- 72
2020-08-27 02:00:00 22.3 14 Oeste 19 Oeste 0 984.3 -- 68
2020-08-27 01:00:00 22.9 9 Oeste 21 Oeste 0 984.4 -- 65
2020-08-27 00:00:00 24.1 3 Norte 24 Noroeste 0 984.3 -- 57
2020-08-26 23:00:00 25.5 20 Noroeste 24 Noroeste 0 983.9 -- 52
2020-08-26 22:00:00 27.5 9 Noroeste 28 Noroeste 0 983.1 -- 45
2020-08-26 21:00:00 30 21 Noroeste 32 Noroeste 0 982.1 -- 41
2020-08-26 20:00:00 32.5 26 Noroeste 34 Noroeste 0 981.8 -- 34
2020-08-26 19:00:00 35 18 Oeste 31 Noroeste 0 981.6 -- 25
2020-08-26 18:00:00 35.6 10 Noroeste 24 Noroeste 0 981.6 -- 23
2020-08-26 17:00:00 35.7 9 Oeste 18 Oeste 0 982 -- 25
2020-08-26 16:00:00 34.7 5 Norte 14 Oeste 0 982.6 -- 26
2020-08-26 15:00:00 33.2 5 Sur 11 Nordeste 0 983.3 -- 30
2020-08-26 14:00:00 31.4 5 Norte 14 Noroeste 0 983.8 -- 35
2020-08-26 13:00:00 29.3 9 Noroeste 17 Noroeste 0 984.5 -- 42
2020-08-26 12:00:00 27.3 11 Noroeste 23 Oeste 0 984.9 -- 47
2020-08-26 11:00:00 25.2 11 Oeste 19 Noroeste 0 984.8 -- 52
2020-08-26 10:00:00 22.8 15 Oeste 23 Oeste 0 984.7 -- 62
2020-08-26 09:00:00 20.3 12 Noroeste 17 Noroeste 0 984.4 -- 70
2020-08-26 08:00:00 19 4 Oeste 15 Noroeste 0 984 -- 75
2020-08-26 07:00:00 19.2 4 Oeste 7 Noroeste 0 983.6 -- 73
2020-08-26 06:00:00 19.5 3 Nordeste 23 Noroeste 0 983.5 -- 72
2020-08-26 05:00:00 20.1 17 Noroeste 26 Noroeste 0 983.2 -- 71
2020-08-26 04:00:00 20.5 18 Noroeste 28 Noroeste 0 983.2 -- 65
2020-08-26 03:00:00 20.8 17 Noroeste 24 Noroeste 0 983.4 -- 61
2020-08-26 02:00:00 21.3 18 Noroeste 27 Noroeste 0 983.2 -- 58
2020-08-26 01:00:00 22.2 15 Noroeste 30 Noroeste 0 983 -- 53
2020-08-26 00:00:00 23.1 20 Noroeste 33 Noroeste 0 982.6 -- 48
2020-08-25 23:00:00 24.5 23 Oeste 29 Noroeste 0 981.8 -- 44
2020-08-25 22:00:00 27.3 22 Noroeste 30 Noroeste 0 980.1 -- 41
2020-08-25 21:00:00 31.7 9 Noroeste 16 Noroeste 0 978.9 -- 21
2020-08-25 20:00:00 35.1 11 Norte 18 Noroeste 0 978.6 -- 17
2020-08-25 19:00:00 36.4 6 Norte 14 Oeste 0 978.5 -- 15
2020-08-25 18:00:00 36.4 4 Nordeste 15 Sudeste 0 978.7 -- 15
2020-08-25 17:00:00 35.9 6 Sudeste 15 Noroeste 0 978.8 -- 15
2020-08-25 16:00:00 35.5 8 Norte 18 Este 0 979.4 -- 15
2020-08-25 15:00:00 34.1 8 Este 15 Este 0 980 -- 19
2020-08-25 14:00:00 32.7 5 Nordeste 12 Este 0 980.5 -- 23
2020-08-25 13:00:00 30.4 6 Sudeste 14 Sur 0 981.3 -- 29
2020-08-25 12:00:00 28.3 6 Este 18 Este 0 981.6 -- 31
2020-08-25 11:00:00 25.2 16 Este 22 Este 0 981.5 -- 42
2020-08-25 10:00:00 21.7 2 Oeste 5 Sur 0 981.6 -- 45
2020-08-25 09:00:00 17.4 0 Calma 4 Noroeste 0 981.5 -- 57
2020-08-25 08:00:00 14.6 4 Sudeste 6 Sudeste 0 981 -- 65
2020-08-25 07:00:00 14 4 Sudoeste 10 Noroeste 0 980.6 -- 67
2020-08-25 06:00:00 14.4 8 Noroeste 11 Noroeste 0 980.5 -- 62
2020-08-25 05:00:00 15.4 3 Nordeste 5 Norte 0 980.4 -- 60
2020-08-25 04:00:00 16.3 0 Calma 5 Noroeste 0 980.4 -- 59
2020-08-25 03:00:00 17.1 0 Calma 8 Sudeste 0 980.4 -- 59
2020-08-25 02:00:00 18.8 0 Calma 7 Noroeste 0 980.7 -- 53
2020-08-25 01:00:00 20 3 Sur 7 Sudoeste 0 981 -- 54
2020-08-25 00:00:00 21.6 4 Sudoeste 9 Noroeste 0 981.1 -- 45
2020-08-24 23:00:00 23 3 Oeste 11 Noroeste 0 981 -- 40
2020-08-24 22:00:00 24.3 8 Noroeste 14 Noroeste 0 980.4 -- 36
2020-08-24 21:00:00 26.7 10 Noroeste 21 Noroeste 0 979.7 -- 31
2020-08-24 20:00:00 29.4 18 Noroeste 30 Noroeste 0 979.5 -- 26
2020-08-24 19:00:00 30.5 19 Noroeste 29 Noroeste 0 979.8 -- 22
2020-08-24 18:00:00 30.5 19 Noroeste 32 Noroeste 0 980.2 -- 20
2020-08-24 17:00:00 29.9 15 Noroeste 34 Noroeste 0 980.9 -- 20
2020-08-24 16:00:00 28.7 18 Noroeste 37 Noroeste 0 982 -- 27
2020-08-24 15:00:00 27.5 25 Noroeste 37 Noroeste 0 982.9 -- 28
2020-08-24 14:00:00 26 28 Noroeste 42 Noroeste 0 983.5 -- 33
2020-08-24 13:00:00 24.9 30 Noroeste 43 Oeste 0 984.2 -- 39
2020-08-24 12:00:00 23.3 27 Noroeste 43 Noroeste 0 984.7 -- 46
2020-08-24 11:00:00 21.9 27 Noroeste 41 Oeste 0 985.1 -- 52
2020-08-24 10:00:00 20.4 26 Noroeste 37 Noroeste 0 985.3 -- 58
2020-08-24 09:00:00 18.3 21 Oeste 34 Noroeste 0 985.2 -- 66
2020-08-24 08:00:00 16.6 21 Oeste 34 Oeste 0 985.2 -- 72
2020-08-24 07:00:00 16.5 24 Oeste 38 Oeste 0 984.7 -- 72
2020-08-24 06:00:00 17.1 29 Oeste 44 Oeste 0 984.8 -- 69
2020-08-24 05:00:00 17.1 26 Oeste 41 Oeste 0 984.9 -- 68
2020-08-24 04:00:00 17.3 26 Oeste 41 Oeste 0 984.8 -- 68
2020-08-24 03:00:00 17.9 29 Oeste 46 Oeste 0 984.9 -- 68
2020-08-24 02:00:00 18.1 32 Oeste 44 Noroeste 0 985.2 -- 68
2020-08-24 01:00:00 18.7 31 Oeste 45 Oeste 0 985.4 -- 67
2020-08-24 00:00:00 19.1 31 Oeste 44 Noroeste 0 985.3 -- 66
2020-08-23 23:00:00 20 33 Noroeste 45 Noroeste 0 985.2 -- 62
2020-08-23 22:00:00 21.2 28 Noroeste 41 Noroeste 0 984.9 -- 57
2020-08-23 21:00:00 22.9 30 Noroeste 44 Noroeste 0 984.4 -- 51
2020-08-23 20:00:00 24.6 29 Noroeste 48 Noroeste 0 984.2 -- 44
2020-08-23 19:00:00 26 36 Noroeste 49 Noroeste 0 983.9 -- 35
2020-08-23 18:00:00 27.5 33 Noroeste 47 Noroeste 0 984.7 -- 31
2020-08-23 17:00:00 27.9 30 Noroeste 49 Noroeste 0 985.1 -- 30
2020-08-23 16:00:00 27 36 Noroeste 49 Oeste 0 985.9 -- 30
2020-08-23 15:00:00 27.4 29 Noroeste 49 Noroeste 0 986.3 -- 32
2020-08-23 14:00:00 25.9 34 Noroeste 46 Oeste 0 986.8 -- 36
2020-08-23 13:00:00 24.8 34 Noroeste 53 Oeste 0 987.6 -- 41
2020-08-23 12:00:00 23.5 34 Noroeste 48 Noroeste 0 988.2 -- 46
2020-08-23 11:00:00 22.2 30 Noroeste 47 Oeste 0 988.3 -- 52
2020-08-23 10:00:00 20.8 30 Noroeste 44 Noroeste 0 988.5 -- 55
2020-08-23 09:00:00 19.5 22 Oeste 33 Oeste 0 988.6 -- 65
2020-08-23 08:00:00 17.7 22 Oeste 28 Oeste 0 988.2 -- 74
2020-08-23 07:00:00 16.9 17 Oeste 26 Oeste 0 988.1 -- 75
2020-08-23 06:00:00 17.5 17 Oeste 28 Oeste 0 988.1 -- 72
2020-08-23 05:00:00 17.9 18 Noroeste 31 Noroeste 0 988.4 -- 71
2020-08-23 04:00:00 18.4 22 Noroeste 39 Noroeste 0 988.7 -- 68
2020-08-23 03:00:00 18.8 26 Noroeste 38 Noroeste 0 988.5 -- 67
2020-08-23 02:00:00 19.2 25 Oeste 35 Oeste 0 988.7 -- 67
2020-08-23 01:00:00 19.7 28 Oeste 37 Oeste 0 988.3 -- 66
2020-08-23 00:00:00 20.1 29 Oeste 39 Oeste 0 988 -- 65
2020-08-22 23:00:00 21.5 19 Oeste 26 Oeste 0 987.6 -- 59
2020-08-22 22:00:00 23.6 10 Noroeste 26 Norte 0 986.8 -- 45
2020-08-22 21:00:00 25.6 21 Norte 33 Norte 0 985.7 -- 40
2020-08-22 20:00:00 27.8 25 Noroeste 39 Noroeste 0 985.1 -- 33
2020-08-22 19:00:00 29.6 24 Noroeste 40 Noroeste 0 984.9 -- 29
2020-08-22 18:00:00 29.8 28 Noroeste 45 Noroeste 0 984.9 -- 29
2020-08-22 17:00:00 30.3 24 Noroeste 41 Noroeste 0 985.3 -- 28
2020-08-22 16:00:00 29.7 27 Noroeste 42 Noroeste 0 985.8 -- 28
2020-08-22 15:00:00 29 26 Noroeste 41 Noroeste 0 986.4 -- 28
2020-08-22 14:00:00 28.4 23 Noroeste 39 Oeste 0 986.6 -- 29
2020-08-22 13:00:00 27.3 20 Noroeste 34 Noroeste 0 987 -- 34
2020-08-22 12:00:00 25.2 25 Noroeste 35 Noroeste 0 987.4 -- 43
2020-08-22 11:00:00 23.3 22 Noroeste 31 Noroeste 0 987.2 -- 48
2020-08-22 10:00:00 21.5 23 Noroeste 35 Noroeste 0 987.1 -- 55
2020-08-22 09:00:00 19.3 16 Noroeste 27 Noroeste 0 987 -- 67
2020-08-22 08:00:00 17.4 6 Noroeste 16 Oeste 0 986.6 -- 74
2020-08-22 07:00:00 17.5 6 Noroeste 22 Noroeste 0 986 -- 72
2020-08-22 06:00:00 18.1 15 Noroeste 24 Noroeste 0 985.4 -- 70
2020-08-22 05:00:00 18.3 9 Noroeste 18 Oeste 0 985 -- 71
2020-08-22 04:00:00 18.6 9 Noroeste 24 Noroeste 0 984.7 -- 71
2020-08-22 03:00:00 19.2 16 Noroeste 24 Noroeste 0 984.4 -- 70
2020-08-22 02:00:00 20.4 17 Noroeste 25 Noroeste 0 984.2 -- 68
2020-08-22 01:00:00 21.5 14 Oeste 27 Noroeste 0 983.6 -- 70
2020-08-22 00:00:00 23 14 Oeste 26 Noroeste 0 983 -- 67